Flight Information

DEPARTURE
DENVER, CO
Elevation:
5884
Runways:
17L/35R - 10001x100 - ASPH-G
17R/35L - 7001x75 - ASPH-G
H1 - 50x50 - CONC-G
10/28 - 4800x75 - ASPH-G
Active PE Departure:
17L - 17R
Current PE ATIS:
L
Altimeter:
30.31
Remarks:
ATIS:
120.3 303-799-6722
Clearance Delivery:
128.6
Ground:
121.8
Tower:
CENTENNIAL TOWER 118.9
DESTINATION
,
Elevation:
TPA:
1000 (est.)


6083.4 NM80° True-11° Var69° HDG

Flight Plan:
(click to file on line)

1. Type
2. Aircraft Identification
3. Aircraft Type / Special Equipment
4. True Airspeed
kts
5. Departure Airport
(ICAO code)
6. Arriving Airport
(ICAO code)
7. Cruising Altitude
ft
8. Alternate Airport
(ICAO code)
9. Route of Flight
10. Remarks


00:00:00 Departure ATIS: Destination ATIS:

Clearance Limit:
Route:
Altitude: Expect in minutes
Frequency:
Transponder: (7500 Hijack / 7600 Lost Comms / 7700 Emergency)


KAPA 282253Z 16009KT 10SM CLR 06/M11 A3031 RMK AO2 SLP303 T00611111
Time: 2022-01-28T22:53:00Z
1643411032
Winds: 160 @ 9 kts
Visibility: 10.0 sm
Clouds (AGL): CLR
Temperature: 6.1 C
Dew Point: -11.1 C
Pressure: 30.31004 in Hgbr


Notes:

Data extracted from FAA Digital Chart Supplement. Effective: 0901Z Thursday, DEC 2, 2021 to 0901Z Thursday, JAN 27, 2022
Current ATIS data is provided courtisy of PilotEdge.